Tiempo atmosférico en la estación meteorológica de Alcañiz, Teruel (320 m.)

Fecha
DESCASC
Temp. máxima en grados centígrados (hora)
DESCASC
Temp. mínima en grados centígrados (hora)
DESCASC
Temp. media en grados centígrados
DESCASC
Racha de viento máxima en m/sg (hora)
DESCASC
Velocidad máxima media en intervalos de 10 minutos(hora)
DESCASC
Precipitaciones diarias en mm
DESCASC
Precipitaciones de 00:00 a 06:00 en mm
DESCASC
Precipitaciones de 06:00 a 12:00 en mm
DESCASC
Precipitaciones de 12:00 a 18:00 en mm
DESCASC
Precipitaciones de 18:00 a 24:00 en mm
DESCASC
17-08-2017 35.7 (17:10) 15.7 (07:20) 25.7 7.22 (20:00) 5.28 (20:00) 0 0 0 0 0
16-08-2017 32.9 (18:00) 18.1 (07:40) 25.5 7.22 (23:59) 3.89 (23:30) 0 0 0 0 0
15-08-2017 33.4 (14:20) 15.7 (00:00) 24.6 8.89 (17:10) 4.72 (18:50) 0 0 0 0 0
14-08-2017 35.3 (16:30) 14.6 (07:00) 24.9 9.44 (16:20) 4.72 (15:50) 0 0 0 0 0
13-08-2017 32.1 (17:10) 13 (00:00) 22.5 10 (19:00) 6.11 (19:10) 0 0 0 0 0
12-08-2017 28.9 (16:30) 10.4 (00:00) 19.6 7.22 (10:40) 3.33 (01:30) 0 0 0 0 0
11-08-2017 26 (17:50) 13.2 (00:00) 19.6 10.56 (10:40) 5.83 (11:00) 0 0 0 0 0
10-08-2017 24.6 (16:50) 11.4 (00:00) 18 13.06 (19:00) 7.5 (02:40) 0 0 0 0 0
09-08-2017 21.9 (15:40) 13.2 (00:00) 17.5 11.11 (19:10) 6.39 (19:00) 0.9 0 0 0 0.9
08-08-2017 28.9 (00:40) 17.8 (00:00) 23.3 12.5 (09:30) 6.39 (18:10) 0 0 0 0 0
07-08-2017 35.2 (16:30) 18.9 (00:00) 27.1 11.39 (17:30) 6.39 (17:40) 0 0 0 0 0
06-08-2017 30.9 (18:40) 17.1 (00:00) 24 9.72 (00:20) 5 (00:30) 0 0 0 0 0
05-08-2017 36 (16:20) 21.2 (00:00) 28.6 10.83 (21:30) 6.39 (20:50) 0 0 0 0 0
04-08-2017 37.5 (17:20) 19.6 (00:00) 28.6 8.33 (15:30) 2.78 (15:00) 0 0 0 0 0
03-08-2017 38.2 (17:40) 18.6 (00:00) 28.4 6.39 (17:50) 2.78 (17:50) 0 0 0 0 0
02-08-2017 33.2 (19:20) 19.8 (00:00) 26.5 11.11 (13:30) 6.39 (18:00) 0 0 0 0 0
01-08-2017 30.5 (19:40) 18.5 (00:00) 24.5 10.28 (02:00) 5.28 (02:00) 0 0 0 0 0
31-07-2017 37.4 (16:40) 17.3 (00:00) 27.4 8.06 (19:30) 3.61 (01:20) 0 0 0 0 0
30-07-2017 37.8 (15:40) 19.3 (00:00) 28.5 11.39 (17:20) 6.39 (17:20) 0 0 0 0 0
29-07-2017 35.7 (16:30) 19.2 (00:00) 27.5 8.89 (18:50) 5.56 (18:50) 0 0 0 0 0
28-07-2017 34.8 (17:40) 17.7 (00:00) 26.3 6.67 (16:30) 4.44 (20:20) 0 0 0 0 0
27-07-2017 36.3 (17:20) 17.8 (00:00) 27 6.67 (15:10) 3.61 (15:00) 0 0 0 0 0
26-07-2017 31.2 (18:20) 15.5 (00:00) 23.4 10.56 (02:40) 6.11 (02:40) 0 0 0 0 0
25-07-2017 26.6 (16:20) 16 (00:00) 21.3 13.06 (17:20) 6.67 (23:20) 0 0 0 0 0
24-07-2017 -- (--) -- (--) -- -- (--) -- (--) 0 0 0 0 0
23-07-2017 27.7 (13:50) 18.7 (00:00) 23.2 14.17 (16:10) 5 (16:20) 11.1 0 0 11.1 0
22-07-2017 31.8 (16:20) 17.4 (00:00) 24.6 9.17 (16:40) 5.83 (17:00) 0 0 0 0 0
21-07-2017 28.9 (18:00) 16.1 (00:00) 22.5 7.22 (16:30) 4.17 (15:20) 2.9 0 2.9 0 0
20-07-2017 31.5 (18:40) 17.9 (00:00) 24.7 10 (10:40) 4.17 (08:50) 0 0 0 0 0
19-07-2017 34.2 (14:20) 20.2 (00:00) 27.2 9.17 (15:30) 5.83 (17:20) 0.2 0.2 0 0 0

Gráficas

Temp. máximas Temp. mínimas Temp. medias Precipitaciones Rachas de viento máximas Velocidades máximas media en intervalos de 10 minutos

Datos horarios

Fecha y hora oficial Temperatura (ºC) Velocidad del viento (km/h) Dirección del viento Racha (km/h) Dirección de racha Precipitación (mm) Presión (hPa) Tendencia (hPa) Humedad (%)
2017-08-17 23:00:00 28.1 6 Sudeste 15 Sudeste 0 -- -- 51
2017-08-17 22:00:00 29 4 Sudeste 13 Sur 0 -- -- 48
2017-08-17 21:00:00 30.8 6 Sudeste 23 Este 0 -- -- 42
2017-08-17 20:00:00 33.2 19 Este 26 Este 0 -- -- 36
2017-08-17 19:00:00 34.9 12 Este 24 Este 0 -- -- 30
2017-08-17 18:00:00 35.3 10 Nordeste 21 Este 0 -- -- 29
2017-08-17 17:00:00 34 6 Nordeste 17 Este 0 -- -- 29
2017-08-17 16:00:00 33.7 7 Este 18 Este 0 -- -- 29
2017-08-17 15:00:00 33.3 4 Norte 13 Este 0 -- -- 29
2017-08-17 14:00:00 32.1 0 Calma 10 Sur 0 -- -- 30
2017-08-17 13:00:00 29.2 4 Sudoeste 14 Sudoeste 0 -- -- 32
2017-08-17 12:00:00 27.4 4 Oeste 11 Sudoeste 0 -- -- 35
2017-08-17 11:00:00 25.9 5 Sudoeste 12 Sudoeste 0 -- -- 38
2017-08-17 10:00:00 23.7 0 Calma 5 Sur 0 -- -- 48
2017-08-17 09:00:00 19.9 0 Calma 4 Sudoeste 0 -- -- 66
2017-08-17 08:00:00 16.4 0 Calma 7 Sudoeste 0 -- -- 74
2017-08-17 07:00:00 15.8 3 Sudoeste 6 Sudoeste 0 -- -- 72
2017-08-17 06:00:00 16.7 5 Sudoeste 9 Sudoeste 0 -- -- 67
2017-08-17 05:00:00 17.8 0 Calma 3 Sur 0 -- -- 62
2017-08-17 04:00:00 19.4 3 Sudoeste 8 Sudoeste 0 -- -- 57
2017-08-17 03:00:00 21.2 4 Oeste 7 Oeste 0 -- -- 52
2017-08-17 02:00:00 23.3 3 Sur 14 Sudoeste 0 -- -- 48
2017-08-17 01:00:00 24.9 5 Sudoeste 23 Oeste 0 -- -- 48
2017-08-17 00:00:00 26.2 13 Oeste 26 Oeste 0 -- -- 48
2017-08-16 23:00:00 24.2 3 Oeste 10 Oeste 0 -- -- 59
2017-08-16 22:00:00 25.9 0 Calma 8 Noroeste 0 -- -- 51
2017-08-16 21:00:00 29 4 Noroeste 8 Oeste 0 -- -- 44
2017-08-16 20:00:00 31.4 4 Norte 11 Nordeste 0 -- -- 39
2017-08-16 19:00:00 31.7 4 Norte 14 Oeste 0 -- -- 39
2017-08-16 18:00:00 32.9 7 Oeste 15 Sudoeste 0 -- -- 41
2017-08-16 17:00:00 31.2 5 Noroeste 18 Noroeste 0 -- -- 42
2017-08-16 16:00:00 31.7 3 Oeste 15 Sudoeste 0 -- -- 45
2017-08-16 15:00:00 30 3 Sur 15 Sudoeste 0 -- -- 50
2017-08-16 14:00:00 27.9 5 Sur 15 Sudoeste 0 -- -- 54
2017-08-16 13:00:00 26.9 7 Sudoeste 19 Oeste 0 -- -- 58
2017-08-16 12:00:00 24.5 6 Oeste 18 Noroeste 0 -- -- 63
2017-08-16 11:00:00 22.9 7 Sudoeste 14 Sudoeste 0 -- -- 69
2017-08-16 10:00:00 21.7 4 Oeste 8 Sudoeste 0 -- -- 74
2017-08-16 09:00:00 19.7 0 Calma -- -- 0 -- -- 83
2017-08-16 08:00:00 18.2 0 Calma 4 Oeste 0 -- -- 90
2017-08-16 07:00:00 18.4 0 Calma 5 Sudoeste 0 -- -- 87
2017-08-16 06:00:00 19 4 Sudoeste 7 Oeste 0 -- -- 87
2017-08-16 05:00:00 18.7 0 Calma 6 Sudoeste 0 -- -- 93
2017-08-16 04:00:00 19 3 Sudoeste 8 Oeste 0 -- -- 94
2017-08-16 03:00:00 19 4 Oeste 8 Oeste 0 -- -- 94
2017-08-16 02:00:00 20.1 0 Calma 5 Nordeste 0 -- -- 91
2017-08-16 01:00:00 21.2 3 Nordeste 9 Este 0 -- -- 86
2017-08-16 00:00:00 22.2 3 Este 14 Nordeste 0 -- -- 82
2017-08-15 23:00:00 23.6 3 Nordeste 10 Nordeste 0 -- -- 69
2017-08-15 22:00:00 24 3 Noroeste 12 Sudeste 0 -- -- 69
2017-08-15 21:00:00 24.8 10 Sur 32 Sudoeste 0 -- -- 66
2017-08-15 20:00:00 27.5 5 Sur 28 Sur 0 -- -- 64
2017-08-15 19:00:00 26.7 10 Sur 32 Sudoeste 0 -- -- 65
2017-08-15 18:00:00 27.6 5 Este 32 Nordeste 0 -- -- 63
2017-08-15 17:00:00 27.7 14 Nordeste 32 Nordeste 0 -- -- 59
2017-08-15 16:00:00 30.6 13 Este 21 Norte 0 -- -- 50
2017-08-15 15:00:00 31.8 10 Norte 20 Norte 0 -- -- 46
2017-08-15 14:00:00 32.1 6 Nordeste 25 Este 0 -- -- 42
2017-08-15 13:00:00 30.6 6 Nordeste 19 Norte 0 -- -- 46
2017-08-15 12:00:00 28.1 8 Nordeste 16 Este 0 -- -- 47
2017-08-15 11:00:00 26 6 Nordeste 14 Este 0 -- -- 54
2017-08-15 10:00:00 22.2 0 Calma 7 Sudeste 0 -- -- 69
2017-08-15 09:00:00 19.5 0 Calma 4 Sur 0 -- -- 78
2017-08-15 08:00:00 16.8 2 Sudoeste 4 Sudoeste 0 -- -- 83
2017-08-15 07:00:00 16 0 Calma 4 Sur 0 -- -- 86
2017-08-15 06:00:00 17 0 Calma 7 Oeste 0 -- -- 81
2017-08-15 05:00:00 17.8 2 Noroeste 9 Este 0 -- -- 80
2017-08-15 04:00:00 19.2 4 Este 12 Nordeste 0 -- -- 70
2017-08-15 03:00:00 20.4 10 Norte 17 Norte 0 -- -- 58
2017-08-15 02:00:00 22.8 8 Este 13 Este 0 -- -- 41
2017-08-15 01:00:00 23.1 8 Este 15 Este 0 -- -- 44
2017-08-15 00:00:00 24 8 Este 13 Este 0 -- -- 40
2017-08-14 23:00:00 25.4 7 Este 22 Este 0 -- -- 39
2017-08-14 22:00:00 26.5 7 Sudeste 22 Sudeste 0 -- -- 39
2017-08-14 21:00:00 27.8 8 Sudeste 27 Sur 0 -- -- 37
2017-08-14 20:00:00 30.2 8 Sudeste 32 Sur 0 -- -- 33
2017-08-14 19:00:00 31.8 14 Sur 27 Sudeste 0 -- -- 34
2017-08-14 18:00:00 33.4 14 Sur 33 Este 0 -- -- 34
2017-08-14 17:00:00 34.3 13 Sur 34 Nordeste 0 -- -- 34
2017-08-14 16:00:00 33.6 17 Nordeste 33 Norte 0 -- -- 38
2017-08-14 15:00:00 33.3 12 Nordeste 24 Norte 0 -- -- 36
2017-08-14 14:00:00 31.7 12 Nordeste 24 Nordeste 0 -- -- 36
2017-08-14 13:00:00 29.6 11 Este 20 Este 0 -- -- 40
2017-08-14 12:00:00 27.4 10 Este 15 Este 0 -- -- 43
2017-08-14 11:00:00 25.6 2 Nordeste 8 Norte 0 -- -- 53
2017-08-14 10:00:00 21.5 0 Calma 7 Sudoeste 0 -- -- 74
2017-08-14 09:00:00 18.9 0 Calma -- -- 0 -- -- 81
2017-08-14 08:00:00 15.6 0 Calma -- -- 0 -- -- 91
2017-08-14 07:00:00 14.9 0 Calma 5 Sudoeste 0 -- -- 94
2017-08-14 06:00:00 16.6 0 Calma 10 Este 0 -- -- 91
2017-08-14 05:00:00 18.3 7 Este 10 Este 0 -- -- 84
2017-08-14 04:00:00 19.4 5 Este 13 Norte 0 -- -- 77
2017-08-14 03:00:00 20.9 6 Nordeste 13 Nordeste 0 -- -- 68
2017-08-14 02:00:00 21.6 6 Este 10 Este 0 -- -- 67
2017-08-14 01:00:00 22.5 5 Este 12 Sur 0 -- -- 64
2017-08-14 00:00:00 23.6 4 Este 13 Sudeste 0 -- -- 64
2017-08-13 23:00:00 24.8 5 Sudeste 14 Sudeste 0 -- -- 61
2017-08-13 22:00:00 25.6 6 Sudeste 18 Sudeste 0 -- -- 59
2017-08-13 21:00:00 27 11 Sur 27 Sur 0 -- -- 55
2017-08-13 20:00:00 29.5 12 Este 32 Este 0 -- -- 50
2017-08-13 19:00:00 30.3 21 Este 36 Nordeste 0 -- -- 48
2017-08-13 18:00:00 31.3 15 Nordeste 31 Nordeste 0 -- -- 43
2017-08-13 17:00:00 31.7 13 Nordeste 27 Nordeste 0 -- -- 37
2017-08-13 16:00:00 31 10 Este 25 Este 0 -- -- 38
2017-08-13 15:00:00 29 11 Nordeste 23 Este 0 -- -- 41
2017-08-13 14:00:00 28.5 9 Este 17 Este 0 -- -- 43
2017-08-13 13:00:00 26.3 3 Oeste 13 Noroeste 0 -- -- 46
2017-08-13 12:00:00 24.5 6 Oeste 17 Oeste 0 -- -- 52
2017-08-13 11:00:00 22.8 7 Oeste 14 Oeste 0 -- -- 55
2017-08-13 10:00:00 21.1 2 Oeste 7 Sudoeste 0 -- -- 61
2017-08-13 09:00:00 17.9 2 Sudoeste 7 Sudoeste 0 -- -- 71
2017-08-13 08:00:00 14.8 4 Sudoeste 8 Sudoeste 0 -- -- 77
2017-08-13 07:00:00 13.4 0 Calma 8 Sur 0 -- -- 77
2017-08-13 06:00:00 14.1 0 Calma -- -- 0 -- -- 74
2017-08-13 05:00:00 14.3 0 Calma 3 Norte 0 -- -- 71
2017-08-13 04:00:00 14.6 0 Calma 7 Sur 0 -- -- 67
2017-08-13 03:00:00 15.2 2 Sudoeste 13 Oeste 0 -- -- 65
2017-08-13 02:00:00 16.2 4 Oeste 7 Oeste 0 -- -- 59
2017-08-13 01:00:00 17.5 0 Calma 5 Oeste 0 -- -- 56
2017-08-13 00:00:00 18.4 0 Calma 8 Oeste 0 -- -- 55
2017-08-12 23:00:00 19.8 0 Calma 4 Oeste 0 -- -- 53
2017-08-12 22:00:00 22.2 0 Calma 5 Nordeste 0 -- -- 43
2017-08-12 21:00:00 25.1 0 Calma 8 Oeste 0 -- -- 40
2017-08-12 20:00:00 28 2 Sudoeste 15 Norte 0 -- -- 36
2017-08-12 19:00:00 28 5 Noroeste 22 Norte 0 -- -- 36
2017-08-12 18:00:00 28.2 5 Norte 17 Noroeste 0 -- -- 36
2017-08-12 17:00:00 27.3 9 Oeste 21 Noroeste 0 -- -- 37
2017-08-12 16:00:00 27.1 5 Norte 18 Oeste 0 -- -- 37
2017-08-12 15:00:00 25.7 5 Noroeste 20 Oeste 0 -- -- 41
2017-08-12 14:00:00 24.4 8 Oeste 21 Oeste 0 -- -- 45
2017-08-12 13:00:00 22.6 9 Sudoeste 20 Oeste 0 -- -- 51
2017-08-12 12:00:00 21.1 6 Sudoeste 20 Oeste 0 -- -- 53
2017-08-12 11:00:00 19.6 12 Oeste 26 Oeste 0 -- -- 55
2017-08-12 10:00:00 18.1 8 Oeste 22 Noroeste 0 -- -- 59
2017-08-12 09:00:00 16.8 8 Oeste 17 Oeste 0 -- -- 61
2017-08-12 08:00:00 13.2 3 Oeste 7 Oeste 0 -- -- 70
2017-08-12 07:00:00 11.1 0 Calma 6 Noroeste 0 -- -- 73
2017-08-12 06:00:00 12.3 0 Calma 10 Oeste 0 -- -- 68
2017-08-12 05:00:00 12.9 0 Calma 10 Sur 0 -- -- 65
2017-08-12 04:00:00 13.8 0 Calma 13 Oeste 0 -- -- 62
2017-08-12 03:00:00 15.8 4 Sur 18 Oeste 0 -- -- 58
2017-08-12 02:00:00 16.8 10 Oeste 22 Sudoeste 0 -- -- 58
2017-08-12 01:00:00 17.8 10 Sudoeste 17 Sudoeste 0 -- -- 58
2017-08-12 00:00:00 17.9 8 Sudoeste 13 Sudoeste 0 -- -- 57
2017-08-11 23:00:00 19.1 9 Sudoeste 22 Oeste 0 -- -- 51
2017-08-11 22:00:00 20.7 10 Noroeste 28 Noroeste 0 -- -- 45
2017-08-11 21:00:00 22.1 17 Noroeste 32 Noroeste 0 -- -- 43
2017-08-11 20:00:00 23.9 16 Noroeste 31 Noroeste 0 -- -- 40
2017-08-11 19:00:00 25.2 16 Oeste 31 Oeste 0 -- -- 38
2017-08-11 18:00:00 25.3 15 Noroeste 36 Noroeste 0 -- -- 37
2017-08-11 17:00:00 25.4 14 Oeste 35 Noroeste 0 -- -- 40
2017-08-11 16:00:00 23.8 16 Noroeste 37 Oeste 0 -- -- 44
2017-08-11 15:00:00 22.6 17 Oeste 32 Oeste 0 -- -- 46
2017-08-11 14:00:00 21.8 15 Noroeste 32 Oeste 0 -- -- 48
2017-08-11 13:00:00 21.7 14 Oeste 35 Oeste 0 -- -- 52
2017-08-11 12:00:00 19.9 16 Oeste 37 Oeste 0 -- -- 55
2017-08-11 11:00:00 18.6 21 Oeste 38 Oeste 0 -- -- 60
2017-08-11 10:00:00 16.7 19 Oeste 37 Oeste 0 -- -- 64
2017-08-11 09:00:00 15.7 17 Oeste 31 Oeste 0 -- -- 66
2017-08-11 08:00:00 14.2 5 Sudoeste 28 Oeste 0 -- -- 70
2017-08-11 07:00:00 13.3 14 Oeste 31 Oeste 0 -- -- 69
2017-08-11 06:00:00 13.3 9 Oeste 22 Sudoeste 0 -- -- 67
2017-08-11 05:00:00 14.1 9 Sudoeste 27 Oeste 0 -- -- 67
2017-08-11 04:00:00 14.7 16 Oeste 32 Oeste 0 -- -- 66
2017-08-11 03:00:00 14.6 10 Oeste 27 Oeste 0 -- -- 69
2017-08-11 02:00:00 14.9 12 Oeste 36 Sudoeste 0 -- -- 68
2017-08-11 01:00:00 16.1 17 Oeste 37 Oeste 0 -- -- 67
2017-08-11 00:00:00 16.5 16 Oeste 36 Oeste 0 -- -- 67
2017-08-10 23:00:00 17.4 16 Oeste 36 Oeste 0 -- -- 65
2017-08-10 22:00:00 18.2 17 Oeste 38 Oeste 0 -- -- 62
2017-08-10 21:00:00 19.5 22 Noroeste 42 Oeste 0 -- -- 57
2017-08-10 20:00:00 21.4 20 Oeste 45 Oeste 0 -- -- 53
2017-08-10 19:00:00 22.2 23 Oeste 47 Oeste 0 -- -- 51
2017-08-10 18:00:00 22.7 22 Noroeste 42 Noroeste 0 -- -- 50
2017-08-10 17:00:00 23.3 17 Noroeste 40 Noroeste 0 -- -- 51
2017-08-10 16:00:00 22.8 20 Noroeste 40 Oeste 0 -- -- 51
2017-08-10 15:00:00 21.4 19 Noroeste 40 Oeste 0 -- -- 53
2017-08-10 14:00:00 22 19 Noroeste 38 Oeste 0 -- -- 54
2017-08-10 13:00:00 20 19 Noroeste 42 Oeste 0 -- -- 57
2017-08-10 12:00:00 18.7 18 Noroeste 38 Oeste 0 -- -- 60
2017-08-10 11:00:00 18.3 21 Noroeste 37 Oeste 0 -- -- 64
2017-08-10 10:00:00 16.7 17 Oeste 42 Oeste 0 -- -- 69
2017-08-10 09:00:00 14.7 18 Oeste 34 Oeste 0 -- -- 74
2017-08-10 08:00:00 13.2 8 Sur 21 Sur 0 -- -- 76
2017-08-10 07:00:00 11.6 7 Sur 16 Oeste 0 -- -- 80
2017-08-10 06:00:00 11.8 12 Oeste 23 Oeste 0 -- -- 78
2017-08-10 05:00:00 12.9 14 Oeste 28 Oeste 0 -- -- 75
2017-08-10 04:00:00 13.1 17 Oeste 37 Oeste 0 -- -- 73
2017-08-10 03:00:00 14.4 19 Oeste 47 Oeste 0 -- -- 71
2017-08-10 02:00:00 15.1 21 Oeste 37 Oeste 0 -- -- 70
2017-08-10 01:00:00 15.5 17 Oeste 35 Noroeste 0 -- -- 67
2017-08-10 00:00:00 15.7 13 Oeste 30 Noroeste 0.2 -- -- 70
2017-08-09 23:00:00 15.8 14 Oeste 33 Oeste 0.1 -- -- 70
2017-08-09 22:00:00 16.8 9 Oeste 26 Noroeste 0.6 -- -- 68
2017-08-09 21:00:00 17.4 13 Oeste 34 Noroeste 0 -- -- 62
2017-08-09 20:00:00 17.5 17 Noroeste 40 Noroeste 0 -- -- 64
2017-08-09 19:00:00 18.6 23 Noroeste 38 Oeste 0 -- -- 60
2017-08-09 18:00:00 20.3 18 Noroeste 31 Oeste 0 -- -- 56
2017-08-09 17:00:00 20.9 18 Noroeste 31 Oeste 0 -- -- 55
2017-08-09 16:00:00 21.3 13 Noroeste 26 Noroeste 0 -- -- 54
2017-08-09 15:00:00 20.9 0 Calma 21 Norte 0 -- -- 57
2017-08-09 14:00:00 20.5 7 Oeste 20 Norte 0 -- -- 59
2017-08-09 13:00:00 19.1 6 Noroeste 19 Oeste 0 -- -- 61
2017-08-09 12:00:00 18.7 7 Oeste 15 Noroeste 0 -- -- 63
2017-08-09 11:00:00 17.8 7 Oeste 21 Oeste 0 -- -- 66
2017-08-09 10:00:00 16.9 8 Oeste 20 Oeste 0 -- -- 67
2017-08-09 09:00:00 16.3 9 Oeste 15 Oeste 0 -- -- 69
2017-08-09 08:00:00 15.3 0 Calma 5 Oeste 0 -- -- 73
2017-08-09 07:00:00 14.2 0 Calma 5 Noroeste 0 -- -- 75
2017-08-09 06:00:00 13.4 0 Calma 6 Sur 0 -- -- 76
2017-08-09 05:00:00 14.1 3 Oeste 8 Sur 0 -- -- 72
2017-08-09 04:00:00 14.6 0 Calma 8 Sur 0 -- -- 70
2017-08-09 03:00:00 15.4 3 Sur 9 Sur 0 -- -- 69
2017-08-09 02:00:00 16.3 4 Sudoeste 9 Sudoeste 0 -- -- 68
2017-08-09 01:00:00 17.4 4 Sur 19 Oeste 0 -- -- 62
2017-08-09 00:00:00 19.1 9 Oeste 26 Oeste 0 -- -- 55
2017-08-08 23:00:00 20.2 9 Oeste 22 Oeste 0 -- -- 53
2017-08-08 22:00:00 20.9 8 Noroeste 18 Noroeste 0 -- -- 49
2017-08-08 21:00:00 22.9 10 Noroeste 25 Noroeste 0 -- -- 44
2017-08-08 20:00:00 24.7 16 Noroeste 32 Oeste 0 -- -- 40
2017-08-08 19:00:00 26 16 Noroeste 43 Noroeste 0 -- -- 39
2017-08-08 18:00:00 26.4 21 Noroeste 44 Noroeste 0 -- -- 41
2017-08-08 17:00:00 26.1 21 Noroeste 39 Noroeste 0 -- -- 42
2017-08-08 16:00:00 25.6 19 Noroeste 37 Noroeste 0 -- -- 42
2017-08-08 15:00:00 26.1 18 Oeste 41 Oeste 0 -- -- 42
2017-08-08 14:00:00 25.3 20 Oeste 41 Oeste 0 -- -- 44
2017-08-08 13:00:00 24.5 18 Oeste 40 Oeste 0 -- -- 48
2017-08-08 12:00:00 22.4 21 Oeste 39 Oeste 0 -- -- 58
2017-08-08 11:00:00 21.1 17 Noroeste 40 Noroeste 0 -- -- 64
2017-08-08 10:00:00 19.4 19 Oeste 45 Oeste 0 -- -- 69
2017-08-08 09:00:00 18.7 20 Oeste 40 Sudoeste 0 -- -- 73
2017-08-08 08:00:00 18 15 Oeste 31 Oeste 0 -- -- 77
2017-08-08 07:00:00 18.3 8 Oeste 27 Oeste 0 -- -- 78
2017-08-08 06:00:00 18.7 12 Oeste 31 Oeste 0 -- -- 76
2017-08-08 05:00:00 19.9 11 Oeste 37 Oeste 0 -- -- 75
2017-08-08 04:00:00 21.2 10 Oeste 37 Oeste 0 -- -- 75
2017-08-08 03:00:00 22.2 21 Oeste 44 Oeste 0 -- -- 75
2017-08-08 02:00:00 25.5 10 Oeste 22 Sudoeste 0 -- -- 70
2017-08-08 01:00:00 28.2 9 Sudoeste 21 Oeste 0 -- -- 59
2017-08-08 00:00:00 27.3 2 Sudoeste 22 Sur 0 -- -- 63
2017-08-07 23:00:00 28.8 11 Sur 20 Sur 0 -- -- 61
2017-08-07 22:00:00 28.8 9 Sur 20 Sudeste 0 -- -- 60
2017-08-07 21:00:00 30.4 9 Sudeste 23 Sudeste 0 -- -- 56
2017-08-07 20:00:00 31.8 12 Este 27 Este 0 -- -- 55
2017-08-07 19:00:00 32.3 12 Este 36 Este 0 -- -- 54
2017-08-07 18:00:00 33 14 Sudeste 41 Este 0 -- -- 50
2017-08-07 17:00:00 34 15 Sudeste 33 Este 0 -- -- 48
2017-08-07 16:00:00 34.4 12 Este 36 Este 0 -- -- 46
2017-08-07 15:00:00 34 17 Nordeste 31 Este 0 -- -- 48
2017-08-07 14:00:00 32.4 9 Nordeste 29 Este 0 -- -- 51
2017-08-07 13:00:00 31 10 Nordeste 19 Este 0 -- -- 55
2017-08-07 12:00:00 28.5 8 Nordeste 16 Nordeste 0 -- -- 59
2017-08-07 11:00:00 27 3 Sudoeste 9 Este 0 -- -- 65
2017-08-07 10:00:00 23.3 2 Oeste 9 Sudoeste 0 -- -- 69
2017-08-07 09:00:00 21.5 5 Oeste 9 Oeste 0 -- -- 73
2017-08-07 08:00:00 19.9 0 Calma 3 Sudeste 0 -- -- 79
2017-08-07 07:00:00 19.2 0 Calma 6 Sudoeste 0 -- -- 78
2017-08-07 06:00:00 20.1 3 Sudoeste 11 Oeste 0 -- -- 78
2017-08-07 05:00:00 20.9 8 Sudoeste 12 Sudoeste 0 -- -- 83
2017-08-07 04:00:00 21.9 4 Sudoeste 6 Sudoeste 0 -- -- 80
2017-08-07 03:00:00 23.3 2 Sur 9 Sudeste 0 -- -- 75
2017-08-07 02:00:00 24.7 3 Sudeste 9 Este 0 -- -- 72
2017-08-07 01:00:00 25.1 2 Sudeste 14 Sudeste 0 -- -- 71
2017-08-07 00:00:00 25.5 6 Sudeste 19 Sur 0 -- -- 70
2017-08-06 23:00:00 25.6 4 Sudeste 19 Sudeste 0 -- -- 68
2017-08-06 22:00:00 26.1 7 Sudeste 23 Sur 0 -- -- 65
2017-08-06 21:00:00 28 11 Sur 23 Sur 0 -- -- 59
2017-08-06 20:00:00 29.7 6 Norte 19 Norte 0 -- -- 57
2017-08-06 19:00:00 30 11 Nordeste 21 Norte 0 -- -- 47
2017-08-06 18:00:00 30.2 8 Nordeste 23 Este 0 -- -- 46
2017-08-06 17:00:00 29.8 12 Nordeste 22 Este 0 -- -- 46
2017-08-06 16:00:00 29.3 9 Nordeste 21 Nordeste 0 -- -- 49
2017-08-06 15:00:00 27.5 7 Oeste 17 Noroeste 0 -- -- 53
2017-08-06 14:00:00 25.7 5 Sudoeste 18 Oeste 0 -- -- 55
2017-08-06 13:00:00 23.9 3 Noroeste 18 Sudoeste 0 -- -- 58
2017-08-06 12:00:00 22.7 8 Oeste 21 Oeste 0 -- -- 62
2017-08-06 11:00:00 20.1 9 Oeste 21 Sudoeste 0 -- -- 67
2017-08-06 10:00:00 19.3 11 Oeste 25 Oeste 0 -- -- 69
2017-08-06 09:00:00 18.8 11 Oeste 19 Noroeste 0 -- -- 74
2017-08-06 08:00:00 17.6 6 Sudoeste 14 Sudoeste 0 -- -- 79
2017-08-06 07:00:00 17.5 4 Oeste 18 Oeste 0 -- -- 78
2017-08-06 06:00:00 17.9 5 Oeste 15 Oeste 0 -- -- 76
2017-08-06 05:00:00 18 6 Sudoeste 19 Oeste 0 -- -- 75
2017-08-06 04:00:00 18.4 5 Oeste 20 Oeste 0 -- -- 72
2017-08-06 03:00:00 19.6 10 Oeste 20 Oeste 0 -- -- 69
2017-08-06 02:00:00 20.5 8 Oeste 24 Oeste 0 -- -- 68
2017-08-06 01:00:00 21.2 12 Oeste 35 Oeste 0 -- -- 64
2017-08-06 00:00:00 22.4 13 Oeste 34 Oeste 0 -- -- 62
2017-08-05 23:00:00 23.9 15 Oeste 34 Noroeste 0 -- -- 59
2017-08-05 22:00:00 25.5 17 Noroeste 39 Oeste 0 -- -- 55
2017-08-05 21:00:00 29.1 19 Noroeste 38 Noroeste 0 -- -- 50
2017-08-05 20:00:00 34.3 6 Sur 11 Sudoeste 0 -- -- 45
2017-08-05 19:00:00 34.5 3 Sudoeste 12 Sudoeste 0 -- -- 45
2017-08-05 18:00:00 34.1 3 Este 16 Sudoeste 0 -- -- 45
2017-08-05 17:00:00 33.5 8 Noroeste 25 Oeste 0 -- -- 46
2017-08-05 16:00:00 34.4 8 Oeste 22 Noroeste 0 -- -- 44
2017-08-05 15:00:00 34 9 Noroeste 25 Noroeste 0 -- -- 46
2017-08-05 14:00:00 32.7 6 Noroeste 20 Noroeste 0 -- -- 48
2017-08-05 13:00:00 31.4 7 Noroeste 18 Norte 0 -- -- 51
2017-08-05 12:00:00 30.5 4 Nordeste 14 Noroeste 0 -- -- 54
2017-08-05 11:00:00 28.1 5 Oeste 14 Noroeste 0 -- -- 59
2017-08-05 10:00:00 26.6 2 Noroeste 10 Noroeste 0 -- -- 63
2017-08-05 09:00:00 24.7 0 Calma 5 Sudoeste 0 -- -- 68
2017-08-05 08:00:00 21.8 2 Oeste 3 Sudoeste 0 -- -- 76
2017-08-05 07:00:00 21.5 0 Calma 3 Sudeste 0 -- -- 76
2017-08-05 06:00:00 22.4 2 Oeste 5 Oeste 0 -- -- 72
2017-08-05 05:00:00 23.5 0 Calma 4 Norte 0 -- -- 65
2017-08-05 04:00:00 24.9 0 Calma 9 Noroeste 0 -- -- 60
2017-08-05 03:00:00 24.9 0 Calma 7 Noroeste 0 -- -- 60
2017-08-05 02:00:00 24.9 5 Oeste 8 Sudoeste 0 -- -- 59
2017-08-05 01:00:00 26 0 Calma 7 Sudoeste 0 -- -- 55
2017-08-05 00:00:00 26.8 4 Oeste 8 Oeste 0 -- -- 52
2017-08-04 23:00:00 27.8 0 Calma 4 Sudeste 0 -- -- 52
2017-08-04 22:00:00 30.1 0 Calma 7 Sudoeste 0 -- -- 46
2017-08-04 21:00:00 32.7 6 Oeste 13 Oeste 0 -- -- 39
2017-08-04 20:00:00 36.2 8 Noroeste 19 Norte 0 -- -- 34
2017-08-04 19:00:00 36.8 9 Norte 24 Sudoeste 0 -- -- 33
2017-08-04 18:00:00 36.6 5 Noroeste 19 Noroeste 0 -- -- 35
2017-08-04 17:00:00 36.6 7 Oeste 23 Oeste 0 -- -- 36
2017-08-04 16:00:00 36.3 9 Noroeste 30 Norte 0 -- -- 38
2017-08-04 15:00:00 34.5 10 Noroeste 20 Noroeste 0 -- -- 39
2017-08-04 14:00:00 34 7 Sudoeste 16 Oeste 0 -- -- 42
2017-08-04 13:00:00 31.7 8 Oeste 18 Oeste 0 -- -- 47
2017-08-04 12:00:00 30.2 6 Oeste 18 Oeste 0 -- -- 51
2017-08-04 11:00:00 27.7 9 Oeste 17 Oeste 0 -- -- 58
2017-08-04 10:00:00 26.2 6 Oeste 15 Noroeste 0 -- -- 61
2017-08-04 09:00:00 23.9 0 Calma 6 Sudoeste 0 -- -- 67
2017-08-04 08:00:00 21.3 0 Calma 3 Sur 0 -- -- 76
2017-08-04 07:00:00 20 3 Sudoeste 7 Oeste 0 -- -- 77
2017-08-04 06:00:00 20.3 3 Sudoeste 4 Sudoeste 0 -- -- 73
2017-08-04 05:00:00 21.8 3 Sudoeste 7 Sudoeste 0 -- -- 65
2017-08-04 04:00:00 23.2 4 Sudoeste 11 Sudoeste 0 -- -- 59
2017-08-04 03:00:00 25.2 4 Sudoeste 13 Oeste 0 -- -- 56
2017-08-04 02:00:00 26 5 Oeste 9 Oeste 0 -- -- 52
2017-08-04 01:00:00 26.5 3 Oeste 6 Oeste 0 -- -- 51
2017-08-04 00:00:00 28 0 Calma 14 Sudeste 0 -- -- 45
2017-08-03 23:00:00 29.8 2 Este 8 Sur 0 -- -- 44
2017-08-03 22:00:00 31.6 5 Sur 18 Este 0 -- -- 40
2017-08-03 21:00:00 34.3 8 Este 16 Este 0 -- -- 32
2017-08-03 20:00:00 36.3 10 Este 19 Este 0 -- -- 28
2017-08-03 19:00:00 37.1 8 Nordeste 21 Norte 0 -- -- 28
2017-08-03 18:00:00 37.5 8 Norte 23 Norte 0 -- -- 28
2017-08-03 17:00:00 36.9 7 Oeste 21 Oeste 0 -- -- 30
2017-08-03 16:00:00 36.9 6 Oeste 15 Sudoeste 0 -- -- 32
2017-08-03 15:00:00 36.5 3 Este 12 Oeste 0 -- -- 34
2017-08-03 14:00:00 34.6 6 Oeste 14 Oeste 0 -- -- 36
2017-08-03 13:00:00 33.6 6 Norte 18 Norte 0 -- -- 38
2017-08-03 12:00:00 32.2 6 Norte 17 Norte 0 -- -- 40
2017-08-03 11:00:00 30.4 0 Calma 11 Noroeste 0 -- -- 46
2017-08-03 10:00:00 26.8 3 Sudoeste 12 Oeste 0 -- -- 54
2017-08-03 09:00:00 23.7 6 Oeste 10 Sudoeste 0 -- -- 63
2017-08-03 08:00:00 21.6 5 Sudoeste 10 Sur 0 -- -- 66
2017-08-03 07:00:00 19.3 3 Oeste 6 Sudoeste 0 -- -- 73
2017-08-03 06:00:00 19.3 0 Calma 8 Oeste 0 -- -- 72
2017-08-03 05:00:00 20.1 0 Calma 3 Este 0 -- -- 68
2017-08-03 04:00:00 21.2 0 Calma 4 Norte 0 -- -- 58
2017-08-03 03:00:00 23.9 3 Este 9 Este 0 -- -- 52
2017-08-03 02:00:00 25.1 6 Este 9 Este 0 -- -- 52
2017-08-03 01:00:00 25.4 2 Nordeste 9 Sudeste 0 -- -- 51
2017-08-03 00:00:00 26.6 7 Este 10 Este 0 -- -- 49
2017-08-02 23:00:00 28.5 4 Sudeste 16 Sudeste 0 -- -- 46
2017-08-02 22:00:00 29.6 4 Sudeste 17 Sudeste 0 -- -- 44
2017-08-02 21:00:00 31.5 7 Sudeste 26 Sudeste 0 -- -- 39
2017-08-02 20:00:00 32.6 12 Sur 23 Sur 0 -- -- 38
2017-08-02 19:00:00 33.1 8 Sudeste 29 Este 0 -- -- 38
2017-08-02 18:00:00 32.3 23 Este -- -- -- -- -- 37
2017-08-02 17:00:00 30.8 10 Este 15 Este 0 -- -- 38
2017-08-02 16:00:00 31.6 3 Sudeste 18 Sudeste 0 -- -- 37
2017-08-02 15:00:00 31.2 8 Sur 18 Sudoeste 0 -- -- 39
2017-08-02 14:00:00 30.1 10 Sudoeste 40 Oeste 0 -- -- 40
2017-08-02 13:00:00 30.3 17 Sudoeste 35 Oeste 0 -- -- 40
2017-08-02 12:00:00 28.5 6 Oeste 23 Oeste 0 -- -- 58
2017-08-02 11:00:00 26.3 5 Nordeste 13 Este 0 -- -- 64
2017-08-02 10:00:00 23.3 2 Oeste 15 Oeste 0 -- -- 76
2017-08-02 09:00:00 22.2 6 Oeste 12 Oeste 0 -- -- 79
2017-08-02 08:00:00 20.8 2 Sudeste 8 Sur 0 -- -- 88
2017-08-02 07:00:00 20.3 2 Oeste 9 Sudoeste 0 -- -- 89
2017-08-02 06:00:00 21 4 Oeste 9 Sudoeste 0 -- -- 87
2017-08-02 05:00:00 22.1 0 Calma 11 Norte 0 -- -- 79
2017-08-02 04:00:00 23.8 8 Norte 11 Norte 0 -- -- 66
2017-08-02 03:00:00 24.8 3 Nordeste 12 Norte 0 -- -- 63
2017-08-02 02:00:00 25.3 6 Norte 10 Nordeste 0 -- -- 60
2017-08-02 01:00:00 26.9 6 Sur 22 Sur 0 -- -- 57
2017-08-02 00:00:00 26.8 8 Sudoeste 25 Sudoeste 0 -- -- 58
2017-08-01 23:00:00 25.4 7 Sudoeste 15 Sur 0 -- -- 71
2017-08-01 22:00:00 26 3 Sudeste 11 Sudoeste 0 -- -- 66
2017-08-01 21:00:00 28.4 4 Nordeste 17 Norte 0 -- -- 59
2017-08-01 20:00:00 30.1 8 Norte 15 Nordeste 0 -- -- 49
2017-08-01 19:00:00 29.6 12 Nordeste 23 Este 0 -- -- 49
2017-08-01 18:00:00 29.2 9 Nordeste 18 Este 0 -- -- 50
2017-08-01 17:00:00 27.5 7 Este 12 Este 0 -- -- 54
2017-08-01 16:00:00 27.2 4 Norte 12 Norte 0 -- -- 56
2017-08-01 15:00:00 26 0 Calma 17 Noroeste 0 -- -- 58
2017-08-01 14:00:00 25.3 5 Norte 14 Norte 0 -- -- 59
2017-08-01 13:00:00 24 2 Noroeste 8 Sudoeste 0 -- -- 64
2017-08-01 12:00:00 23.9 0 Calma 14 Noroeste 0 -- -- 64
2017-08-01 11:00:00 22.3 5 Norte 15 Noroeste 0 -- -- 67
2017-08-01 10:00:00 21.5 7 Oeste 15 Oeste 0 -- -- 69
2017-08-01 09:00:00 21.3 9 Oeste 19 Oeste 0 -- -- 71
2017-08-01 08:00:00 20.3 7 Oeste 14 Oeste 0 -- -- 75
2017-08-01 07:00:00 18.5 0 Calma 7 Oeste 0 -- -- 79
2017-08-01 06:00:00 19.7 0 Calma 11 Oeste 0 -- -- 75
2017-08-01 05:00:00 21.2 5 Sudoeste 24 Oeste 0 -- -- 72
2017-08-01 04:00:00 21.5 9 Oeste 18 Oeste 0 -- -- 70
2017-08-01 03:00:00 22.1 14 Oeste 31 Oeste 0 -- -- 67
2017-08-01 02:00:00 24 19 Oeste 37 Oeste 0 -- -- 67
2017-08-01 01:00:00 27.4 11 Oeste 24 Sur 0 -- -- 50
2017-08-01 00:00:00 29.3 4 Sur 15 Sur 0 -- -- 41
2017-07-31 23:00:00 28.7 0 Calma 13 Sudeste 0 -- -- 44
2017-07-31 22:00:00 30.1 4 Sur 19 Sur 0 -- -- 45
2017-07-31 21:00:00 31.9 8 Sudeste 24 Este 0 -- -- 42
2017-07-31 20:00:00 34.1 9 Sudeste 29 Sudeste 0 -- -- 39
2017-07-31 19:00:00 35.9 9 Sudeste 27 Sudeste 0 -- -- 35
2017-07-31 18:00:00 36.9 10 Sudeste 28 Sudeste 0 -- -- 34
2017-07-31 17:00:00 37.3 8 Sur 28 Sudeste 0 -- -- 35
2017-07-31 16:00:00 35.5 7 Este 21 Norte 0 -- -- 39
2017-07-31 15:00:00 32.8 11 Nordeste 25 Este 0 -- -- 47
2017-07-31 14:00:00 29.8 8 Nordeste 20 Nordeste 0 -- -- 51
2017-07-31 13:00:00 29 8 Este 17 Sudoeste 0 -- -- 52
2017-07-31 12:00:00 26 7 Oeste 15 Sudoeste 0 -- -- 58
2017-07-31 11:00:00 24.2 5 Sudoeste 12 Sudoeste 0 -- -- 63
2017-07-31 10:00:00 21.9 3 Oeste 10 Oeste 0 -- -- 67
2017-07-31 09:00:00 21 3 Noroeste 8 Noroeste 0 -- -- 69
2017-07-31 08:00:00 19.3 2 Nordeste 4 Noroeste 0 -- -- 76
2017-07-31 07:00:00 18 0 Calma 7 Oeste 0 -- -- 76
2017-07-31 06:00:00 19.4 2 Oeste 8 Noroeste 0 -- -- 73
2017-07-31 05:00:00 19.9 3 Oeste 7 Sudoeste 0 -- -- 75
2017-07-31 04:00:00 21.1 6 Oeste 14 Noroeste 0 -- -- 69
2017-07-31 03:00:00 23 5 Oeste 19 Noroeste 0 -- -- 65
2017-07-31 02:00:00 23.9 8 Noroeste 26 Noroeste 0 -- -- 78
2017-07-31 01:00:00 29.3 13 Noroeste 27 Noroeste 0 -- -- 39
2017-07-31 00:00:00 29.6 3 Sudeste 20 Sur 0 -- -- 38
2017-07-30 23:00:00 30.7 11 Sur 23 Sur 0 -- -- 38
2017-07-30 22:00:00 31.2 7 Sur 19 Sur 0 -- -- 36
2017-07-30 21:00:00 32.6 9 Este 22 Este 0 -- -- 35
2017-07-30 20:00:00 33.7 10 Sudeste 25 Sudeste 0 -- -- 34
2017-07-30 19:00:00 35.3 11 Sur 30 Este 0 -- -- 33
2017-07-30 18:00:00 34.7 23 Este 41 Este 0 -- -- 29
2017-07-30 17:00:00 37.4 14 Este 24 Este 0 -- -- 28
2017-07-30 16:00:00 36.7 12 Nordeste 26 Este 0 -- -- 28
2017-07-30 15:00:00 36.1 11 Nordeste 24 Sudeste 0 -- -- 29
2017-07-30 14:00:00 34.3 9 Este 19 Nordeste 0 -- -- 33
2017-07-30 13:00:00 32.7 3 Norte 14 Norte 0 -- -- 32
2017-07-30 12:00:00 30.4 4 Sudoeste 13 Sudoeste 0 -- -- 46
2017-07-30 11:00:00 27.4 4 Sur 12 Sudoeste 0 -- -- 62
2017-07-30 10:00:00 25.2 6 Sudoeste 13 Sudoeste 0 -- -- 75
2017-07-30 09:00:00 21.9 3 Sudoeste 6 Sudoeste 0 -- -- 87
2017-07-30 08:00:00 20.5 0 Calma 4 Oeste 0 -- -- 93
2017-07-30 07:00:00 19.6 0 Calma 5 Sudoeste 0 -- -- 95
2017-07-30 06:00:00 20.3 2 Sudeste 6 Sur 0 -- -- 94
2017-07-30 05:00:00 20.9 0 Calma 4 Este 0 -- -- 90
2017-07-30 04:00:00 21.7 0 Calma 4 Norte 0 -- -- 87
2017-07-30 03:00:00 22.4 0 Calma 9 Norte 0 -- -- 85
2017-07-30 02:00:00 23 2 Norte 6 Noroeste 0 -- -- 83
2017-07-30 01:00:00 24.6 0 Calma 8 Nordeste 0 -- -- 75
2017-07-30 00:00:00 25.8 2 Nordeste 5 Sudeste 0 -- -- 71
2017-07-29 23:00:00 27.1 2 Este 8 Este 0 -- -- 65
2017-07-29 22:00:00 29.4 4 Sudeste 17 Sur 0 -- -- 54
2017-07-29 21:00:00 31.1 8 Sur 25 Este 0 -- -- 50
2017-07-29 20:00:00 32.7 19 Este 32 Este 0 -- -- 46
2017-07-29 19:00:00 33.9 18 Este 32 Este 0 -- -- 44
2017-07-29 18:00:00 34.3 13 Nordeste 28 Nordeste 0 -- -- 42
2017-07-29 17:00:00 35 13 Nordeste 25 Este 0 -- -- 40
2017-07-29 16:00:00 35 12 Nordeste 22 Este 0 -- -- 34
2017-07-29 15:00:00 34 9 Este 19 Nordeste 0 -- -- 36
2017-07-29 14:00:00 33 5 Este 17 Este 0 -- -- 39
2017-07-29 13:00:00 30.5 8 Este 16 Nordeste 0 -- -- 44
2017-07-29 12:00:00 28.8 2 Sudoeste 12 Sudoeste 0 -- -- 48
2017-07-29 11:00:00 26.4 5 Sudoeste 12 Sudoeste 0 -- -- 49
2017-07-29 10:00:00 24.3 5 Sudoeste 9 Sudoeste 0 -- -- 59
2017-07-29 09:00:00 21.9 3 Sudoeste 6 Sudoeste 0 -- -- 81
2017-07-29 08:00:00 20.2 0 Calma -- -- 0 -- -- 94
2017-07-29 07:00:00 19.3 0 Calma -- -- 0 -- -- 95
2017-07-29 06:00:00 19.8 0 Calma 6 Sudoeste 0 -- -- 94
2017-07-29 05:00:00 20.2 3 Sudoeste 7 Oeste 0 -- -- 95
2017-07-29 04:00:00 20.7 0 Calma 8 Oeste 0 -- -- 90
2017-07-29 03:00:00 21.7 3 Oeste 9 Noroeste 0 -- -- 78
2017-07-29 02:00:00 23.1 6 Norte 10 Este 0 -- -- 73
2017-07-29 01:00:00 24.2 6 Este 9 Este 0 -- -- 67
2017-07-29 00:00:00 25.8 0 Calma 11 Oeste 0 -- -- 64
2017-07-28 23:00:00 27.2 0 Calma 10 Sur 0 -- -- 55
2017-07-28 22:00:00 28.8 3 Sudeste 15 Este 0 -- -- 48
2017-07-28 21:00:00 30.6 13 Este 22 Este 0 -- -- 46
2017-07-28 20:00:00 32.3 15 Este 23 Este 0 -- -- 46
2017-07-28 19:00:00 33.6 10 Nordeste 18 Este 0 -- -- 42
2017-07-28 18:00:00 34.2 3 Este 15 Este 0 -- -- 37
2017-07-28 17:00:00 34 3 Sudeste 24 Este 0 -- -- 37
2017-07-28 16:00:00 32.3 9 Este 23 Este 0 -- -- 40
2017-07-28 15:00:00 31.1 8 Este 20 Este 0 -- -- 43
2017-07-28 14:00:00 30.8 2 Este 15 Norte 0 -- -- 47
2017-07-28 13:00:00 28.9 4 Sudoeste 13 Nordeste 0 -- -- 51
2017-07-28 12:00:00 26.4 6 Oeste 17 Noroeste 0 -- -- 58
2017-07-28 11:00:00 25.4 6 Oeste 18 Oeste 0 -- -- 61
2017-07-28 10:00:00 24.5 0 Calma 12 Noroeste 0 -- -- 64
2017-07-28 09:00:00 22.1 0 Calma 4 Sudoeste 0 -- -- 72
2017-07-28 08:00:00 19.3 2 Oeste 5 Sudoeste 0 -- -- 80
2017-07-28 07:00:00 17.9 0 Calma 5 Sudoeste 0 -- -- 82
2017-07-28 06:00:00 18.7 0 Calma 5 Oeste 0 -- -- 77
2017-07-28 05:00:00 20.2 0 Calma 7 Sudoeste 0 -- -- 68
2017-07-28 04:00:00 21.8 0 Calma 3 Norte 0 -- -- 63
2017-07-28 03:00:00 23.6 3 Sur 16 Noroeste 0 -- -- 56
2017-07-28 02:00:00 23.9 3 Sudoeste 10 Oeste 0 -- -- 65
2017-07-28 01:00:00 25.9 8 Oeste 12 Oeste 0 -- -- 56
2017-07-28 00:00:00 27.1 0 Calma 11 Sur 0 -- -- 49
2017-07-27 23:00:00 29.3 8 Sur 15 Sur 0 -- -- 45
2017-07-27 22:00:00 30.7 7 Sur 17 Sudeste 0 -- -- 44
2017-07-27 21:00:00 33.2 3 Este 10 Este 0 -- -- 30
2017-07-27 20:00:00 34.7 6 Este 19 Este 0 -- -- 28
2017-07-27 19:00:00 34.8 6 Este 15 Norte 0 -- -- 28
2017-07-27 18:00:00 35.1 6 Norte 18 Nordeste 0 -- -- 28
2017-07-27 17:00:00 36 8 Norte 24 Norte 0 -- -- 29
2017-07-27 16:00:00 34.8 7 Norte 24 Este 0 -- -- 29
2017-07-27 15:00:00 33.5 13 Este 23 Este 0 -- -- 31
2017-07-27 14:00:00 32.3 5 Nordeste 13 Este 0 -- -- 32
2017-07-27 13:00:00 31.1 4 Sudoeste 11 Sudoeste 0 -- -- 35
2017-07-27 12:00:00 28.8 3 Nordeste 9 Sur 0 -- -- 38
2017-07-27 11:00:00 27.2 4 Sudoeste 12 Sudoeste 0 -- -- 42
2017-07-27 10:00:00 25.2 2 Sudoeste 6 Oeste 0 -- -- 51
2017-07-27 09:00:00 21.7 0 Calma 6 Sudoeste 0 -- -- 60
2017-07-27 08:00:00 19.2 0 Calma 10 Oeste 0 -- -- 64
2017-07-27 07:00:00 18.1 6 Sudoeste 12 Sudoeste 0 -- -- 66
2017-07-27 06:00:00 18.9 5 Sur 11 Sur 0 -- -- 65
2017-07-27 05:00:00 19.2 3 Sur 7 Sur 0 -- -- 65
2017-07-27 04:00:00 19.6 3 Sur 8 Sur 0 -- -- 64
2017-07-27 03:00:00 20 2 Sudoeste 13 Sur 0 -- -- 60
2017-07-27 02:00:00 21.2 5 Sudoeste 9 Sur 0 -- -- 55
2017-07-27 01:00:00 21.9 4 Sur 9 Sudoeste 0 -- -- 57
2017-07-27 00:00:00 22.6 4 Sudoeste 15 Oeste 0 -- -- 53
2017-07-26 23:00:00 24.6 8 Oeste 24 Oeste 0 -- -- 46
2017-07-26 22:00:00 27 14 Oeste 23 Oeste 0 -- -- 40
2017-07-26 21:00:00 28.7 10 Noroeste 28 Noroeste 0 -- -- 40
2017-07-26 20:00:00 29.9 13 Oeste 35 Noroeste 0 -- -- 39
2017-07-26 19:00:00 30.3 14 Noroeste 30 Oeste 0 -- -- 37
2017-07-26 18:00:00 30.1 16 Oeste 29 Oeste 0 -- -- 37
2017-07-26 17:00:00 29.4 12 Oeste 36 Noroeste 0 -- -- 38
2017-07-26 16:00:00 28.7 14 Oeste 31 Oeste 0 -- -- 41
2017-07-26 15:00:00 27.5 14 Oeste 33 Noroeste 0 -- -- 41
2017-07-26 14:00:00 26.8 12 Oeste 32 Oeste 0 -- -- 43
2017-07-26 13:00:00 24.7 15 Oeste 34 Oeste 0 -- -- 45
2017-07-26 12:00:00 23.1 15 Oeste 30 Oeste 0 -- -- 52
2017-07-26 11:00:00 21.1 11 Oeste 33 Oeste 0 -- -- 59
2017-07-26 10:00:00 19.5 17 Oeste 32 Oeste 0 -- -- 62
2017-07-26 09:00:00 18 14 Oeste 30 Noroeste 0 -- -- 66
2017-07-26 08:00:00 16.4 2 Sudoeste 15 Sudoeste 0 -- -- 71
2017-07-26 07:00:00 15.6 4 Sur 18 Oeste 0 -- -- 71
2017-07-26 06:00:00 16.6 11 Oeste 26 Oeste 0 -- -- 68
2017-07-26 05:00:00 16.4 10 Oeste 30 Oeste 0 -- -- 68
2017-07-26 04:00:00 16.9 9 Oeste 33 Oeste 0 -- -- 67
2017-07-26 03:00:00 17.4 16 Oeste 38 Oeste 0 -- -- 65
2017-07-26 02:00:00 17.5 18 Oeste 32 Oeste 0 -- -- 64
2017-07-26 01:00:00 17.8 16 Oeste 28 Sudoeste 0 -- -- 63
2017-07-26 00:00:00 19 21 Oeste 43 Oeste 0 -- -- 60
2017-07-25 23:00:00 19.9 17 Oeste 36 Oeste 0 -- -- 58
2017-07-25 22:00:00 20.5 16 Oeste 36 Oeste 0 -- -- 54
2017-07-25 21:00:00 21.3 18 Oeste 41 Oeste 0 -- -- 52
2017-07-25 20:00:00 23 21 Noroeste 41 Oeste 0 -- -- 47
2017-07-25 19:00:00 24.8 22 Oeste 39 Noroeste 0 -- -- 44
2017-07-25 18:00:00 25.6 21 Oeste 47 Oeste 0 -- -- 44
2017-07-25 17:00:00 25.4 20 Oeste 37 Oeste 0 -- -- 45
2017-07-25 16:00:00 25.2 19 Oeste 40 Oeste 0 -- -- 46
2017-07-25 15:00:00 25.1 19 Oeste 39 Oeste 0 -- -- 47
2017-07-25 14:00:00 24.6 19 Oeste 38 Oeste 0 -- -- 48
2017-07-25 13:00:00 22.4 18 Oeste 37 Oeste 0 -- -- 52
2017-07-25 12:00:00 21.5 19 Oeste 38 Oeste 0 -- -- 55
2017-07-25 11:00:00 20.8 19 Oeste 38 Oeste 0 -- -- 59
2017-07-25 10:00:00 19.5 17 Noroeste 40 Oeste 0 -- -- 63
2017-07-25 09:00:00 18.4 18 Oeste 35 Oeste 0 -- -- 67
2017-07-25 08:00:00 17 7 Oeste 15 Oeste 0 -- -- 72
2017-07-25 07:00:00 16.1 6 Sudoeste 28 Oeste 0 -- -- 76
2017-07-25 06:00:00 16.4 16 Oeste 30 Oeste 0 -- -- 75
2017-07-25 05:00:00 16.8 14 Oeste 36 Oeste 0 -- -- 74
2017-07-25 04:00:00 17.2 17 Oeste 37 Sudoeste 0 -- -- 74
2017-07-25 03:00:00 17.3 16 Oeste 31 Sudoeste 0 -- -- 75
2017-07-25 02:00:00 18 18 Sudoeste 33 Sudoeste 0 -- -- 73
2017-07-25 01:00:00 18.8 20 Oeste 35 Oeste 0 -- -- 69
2017-07-25 00:00:00 19.6 18 Oeste 36 Oeste 0 -- -- 65
2017-07-24 23:00:00 20.8 16 Oeste 40 Oeste 0 -- -- 60
2017-07-24 22:00:00 22.3 19 Oeste 43 Noroeste 0 -- -- 53
2017-07-24 21:00:00 23.9 18 Noroeste 53 Noroeste 0 -- -- 47
2017-07-24 20:00:00 25.5 25 Noroeste 49 Noroeste 0 -- -- 44
2017-07-24 19:00:00 26.7 24 Noroeste 48 Noroeste 0 -- -- 42
2017-07-24 18:00:00 27.7 23 Noroeste 49 Noroeste 0 -- -- 40
2017-07-24 17:00:00 27.9 24 Noroeste 55 Oeste 0 -- -- 39
2017-07-24 16:00:00 27.5 22 Oeste 43 Oeste 0 -- -- 42
2017-07-24 15:00:00 26.7 25 Noroeste 44 Oeste 0 -- -- 44
2017-07-24 14:00:00 26.7 25 Noroeste 42 Oeste 0 -- -- 48
2017-07-24 13:00:00 25.8 20 Noroeste 44 Noroeste 0 -- -- 52
2017-07-24 12:00:00 24.7 23 Noroeste 47 Oeste 0 -- -- 56
2017-07-24 11:00:00 23.4 19 Oeste 35 Oeste 0 -- -- 62
2017-07-24 10:00:00 22 14 Oeste -- -- -- -- -- 69
2017-07-24 09:00:00 -- -- -- -- -- -- -- -- --
2017-07-24 08:00:00 -- -- -- -- -- -- -- -- --
2017-07-24 07:00:00 -- -- -- -- -- -- -- -- --
2017-07-24 06:00:00 -- -- -- -- -- -- -- -- --
2017-07-24 05:00:00 18.4 8 Sudoeste 18 Sudoeste 0 -- -- 76
2017-07-24 04:00:00 18.6 5 Sudoeste 15 Sudoeste 0 -- -- 73
2017-07-24 03:00:00 19.1 4 Sur 18 Oeste 0 -- -- 69
2017-07-24 02:00:00 19.4 8 Sudoeste 17 Oeste 0 -- -- 67
2017-07-24 01:00:00 20.1 8 Sudoeste 15 Oeste 0 -- -- 72
2017-07-24 00:00:00 19.8 3 Sudoeste 10 Oeste 0 -- -- 92
2017-07-23 23:00:00 20.7 5 Oeste 8 Oeste 0 -- -- 87
2017-07-23 22:00:00 21 0 Calma -- -- 0 -- -- 84
2017-07-23 21:00:00 23.4 0 Calma 4 Nordeste 0 -- -- 73
2017-07-23 20:00:00 24 2 Este 7 Este 0 -- -- 66
2017-07-23 19:00:00 23.2 4 Oeste 18 Sur 0 -- -- 68
2017-07-23 18:00:00 22 5 Sur 26 Sudeste 0 -- -- 73
2017-07-23 17:00:00 21 6 Sudeste 51 Sudoeste 8.7 -- -- 74
2017-07-23 16:00:00 21.4 16 Oeste 33 Oeste 2.4 -- -- 84
2017-07-23 15:00:00 26.5 10 Nordeste 24 Este 0 -- -- 54
2017-07-23 14:00:00 26.8 3 Norte 19 Este 0 -- -- 53
2017-07-23 13:00:00 25.5 3 Este 13 Norte 0 -- -- 56
2017-07-23 12:00:00 22.7 5 Noroeste 18 Noroeste 0 -- -- 61
2017-07-23 11:00:00 21.2 6 Noroeste 12 Oeste 0 -- -- 66
2017-07-23 10:00:00 20.1 8 Oeste 18 Noroeste 0 -- -- 69
2017-07-23 09:00:00 19.8 9 Oeste 20 Oeste 0 -- -- 70
2017-07-23 08:00:00 19.5 11 Noroeste 20 Noroeste 0 -- -- 71
2017-07-23 07:00:00 19.3 8 Oeste 17 Noroeste 0 -- -- 73
2017-07-23 06:00:00 19 8 Oeste 15 Oeste 0 -- -- 75
2017-07-23 05:00:00 19.5 8 Oeste 18 Oeste 0 -- -- 72
2017-07-23 04:00:00 20.1 7 Oeste 23 Noroeste 0 -- -- 71
2017-07-23 03:00:00 20.8 6 Oeste 26 Noroeste 0 -- -- 70
2017-07-23 02:00:00 22.6 13 Noroeste 23 Noroeste 0 -- -- 85
2017-07-23 01:00:00 23.1 0 Calma 3 Nordeste 0 -- -- 80
2017-07-23 00:00:00 25 0 Calma 6 Sudeste 0 -- -- 71
2017-07-22 23:00:00 25.8 6 Este 15 Este 0 -- -- 67
2017-07-22 22:00:00 27 8 Este 17 Este 0 -- -- 63
2017-07-22 21:00:00 28.4 13 Este 24 Este 0 -- -- 57
2017-07-22 20:00:00 29.9 10 Este 24 Este 0 -- -- 54
2017-07-22 19:00:00 30 15 Nordeste 30 Este 0 -- -- 54
2017-07-22 18:00:00 30.5 16 Nordeste 31 Este 0 -- -- 51
2017-07-22 17:00:00 29.7 21 Este 33 Este 0 -- -- 53
2017-07-22 16:00:00 31.6 15 Este 32 Este 0 -- -- 47
2017-07-22 15:00:00 31 13 Nordeste 25 Nordeste 0 -- -- 47
2017-07-22 14:00:00 29.8 15 Nordeste 24 Este 0 -- -- 50
2017-07-22 13:00:00 26.9 11 Nordeste 21 Este 0 -- -- 55
2017-07-22 12:00:00 26.2 0 Calma 13 Este 0 -- -- 59
2017-07-22 11:00:00 23.5 3 Este 9 Noroeste 0 -- -- 66
2017-07-22 10:00:00 21.8 5 Norte 13 Oeste 0 -- -- 70
2017-07-22 09:00:00 20.9 4 Oeste 11 Noroeste 0 -- -- 77
2017-07-22 08:00:00 18.7 3 Oeste 9 Oeste 0 -- -- 92
2017-07-22 07:00:00 17.5 5 Oeste 11 Sudoeste 0 -- -- 94
2017-07-22 06:00:00 18.2 5 Sudoeste 12 Sudoeste 0 -- -- 93
2017-07-22 05:00:00 18.7 6 Sudoeste 13 Sudoeste 0 -- -- 95
2017-07-22 04:00:00 19.3 7 Oeste 13 Sudoeste 0 -- -- 93
2017-07-22 03:00:00 20.5 0 Calma 12 Norte 0 -- -- 87
2017-07-22 02:00:00 21 5 Norte 14 Norte 0 -- -- 83
2017-07-22 01:00:00 21.5 2 Este 6 Norte 0 -- -- 82
2017-07-22 00:00:00 22.9 2 Sur 12 Este 0 -- -- 75
2017-07-21 23:00:00 23.1 4 Este 10 Este 0 -- -- 73
2017-07-21 22:00:00 24.5 5 Sudeste 15 Sur 0 -- -- 67
2017-07-21 21:00:00 25.6 5 Sudeste 15 Sur 0 -- -- 63
2017-07-21 20:00:00 26.4 9 Sur 25 Sur 0 -- -- 60
2017-07-21 19:00:00 28.4 9 Sudeste 23 Sur 0 -- -- 54
2017-07-21 18:00:00 28.4 10 Sur 25 Sur 0 -- -- 55
2017-07-21 17:00:00 28 10 Este 26 Este 0 -- -- 57
2017-07-21 16:00:00 24.9 12 Nordeste 25 Este 0 -- -- 71
2017-07-21 15:00:00 24.5 12 Nordeste 24 Nordeste 0 -- -- 69
2017-07-21 14:00:00 25 14 Nordeste 24 Nordeste 0 -- -- 66
2017-07-21 13:00:00 22.7 10 Nordeste 19 Nordeste 0 -- -- 70
2017-07-21 12:00:00 20.9 6 Este 13 Este 0 -- -- 75
2017-07-21 11:00:00 18.9 8 Norte 13 Nordeste 0 -- -- 83
2017-07-21 10:00:00 18.8 3 Norte 8 Norte 0 -- -- 87
2017-07-21 09:00:00 17.2 2 Norte 18 Oeste 0.3 -- -- 91
2017-07-21 08:00:00 17.1 0 Calma 16 Sudoeste 2.6 -- -- 90
2017-07-21 07:00:00 18.7 0 Calma 7 Noroeste 0 -- -- 70
2017-07-21 06:00:00 18.9 4 Norte 10 Noroeste 0 -- -- 68
2017-07-21 05:00:00 19.2 0 Calma 9 Noroeste 0 -- -- 67
2017-07-21 04:00:00 19.5 5 Sudoeste 10 Oeste 0 -- -- 66
2017-07-21 03:00:00 20.2 6 Oeste 13 Oeste 0 -- -- 63
2017-07-21 02:00:00 20.6 6 Noroeste 12 Oeste 0 -- -- 60
2017-07-21 01:00:00 21.7 6 Noroeste 23 Oeste 0 -- -- 58
2017-07-21 00:00:00 22.7 9 Oeste 28 Noroeste 0 -- -- 56
2017-07-20 23:00:00 24.7 12 Noroeste 23 Noroeste 0 -- -- 54
2017-07-20 22:00:00 27.9 4 Sudeste 22 Este 0 -- -- 55
2017-07-20 21:00:00 29 12 Este 27 Este 0 -- -- 49
2017-07-20 20:00:00 30.6 6 Nordeste 18 Nordeste 0 -- -- 39
2017-07-20 19:00:00 30.6 7 Norte 17 Norte 0 -- -- 40
2017-07-20 18:00:00 30.2 9 Nordeste 20 Este 0 -- -- 44
2017-07-20 17:00:00 30.7 8 Nordeste 24 Este 0 -- -- 46
2017-07-20 16:00:00 29.5 8 Oeste 17 Oeste 0 -- -- 48
2017-07-20 15:00:00 28.2 5 Sudoeste 18 Oeste 0 -- -- 51
2017-07-20 14:00:00 26.9 12 Oeste 28 Sudoeste 0 -- -- 55
2017-07-20 13:00:00 26.4 9 Oeste 20 Sudoeste 0 -- -- 59
2017-07-20 12:00:00 24.1 9 Oeste 25 Oeste 0 -- -- 63
2017-07-20 11:00:00 22.8 7 Oeste 36 Oeste 0 -- -- 66
2017-07-20 10:00:00 21.7 10 Noroeste 26 Oeste 0 -- -- 69
2017-07-20 09:00:00 20.5 12 Oeste 23 Oeste 0 -- -- 72
2017-07-20 08:00:00 19 3 Oeste 13 Sudoeste 0 -- -- 79
2017-07-20 07:00:00 18.1 6 Sudoeste 10 Sudoeste 0 -- -- 80
2017-07-20 06:00:00 18.3 2 Sur 22 Oeste 0 -- -- 82
2017-07-20 05:00:00 19.2 10 Oeste 18 Oeste 0 -- -- 81
2017-07-20 04:00:00 20.2 8 Oeste 18 Noroeste 0 -- -- 84
2017-07-20 03:00:00 20.8 9 Oeste 21 Oeste 0 -- -- 85
2017-07-20 02:00:00 20.8 5 Sudoeste 19 Oeste 0 -- -- 88
2017-07-20 01:00:00 22.1 9 Oeste 20 Oeste 0 -- -- 83
2017-07-20 00:00:00 23.5 8 Sudoeste 18 Sudoeste 0 -- -- 75
2017-07-19 23:00:00 26.5 2 Este 10 Sudeste 0 -- -- 56
2017-07-19 22:00:00 28.6 5 Este 18 Sudeste 0 -- -- 51
2017-07-19 21:00:00 29.7 11 Este 23 Este 0 -- -- 46
2017-07-19 20:00:00 31.9 7 Este 28 Sudeste 0 -- -- 42
2017-07-19 19:00:00 32.3 16 Este 27 Este 0 -- -- 41
2017-07-19 18:00:00 32.3 15 Este 32 Este 0 -- -- 40
2017-07-19 17:00:00 32.5 17 Este 31 Sudeste 0 -- -- 40
2017-07-19 16:00:00 33.1 12 Sudeste 33 Este 0 -- -- 39
2017-07-19 15:00:00 33.3 13 Sudeste 30 Sudeste 0 -- -- 39
2017-07-19 14:00:00 33.5 9 Sudeste 30 Este 0 -- -- 39
2017-07-19 13:00:00 30.2 9 Nordeste 18 Este 0 -- -- 47
2017-07-19 12:00:00 29 4 Nordeste 13 Oeste 0 -- -- 48
2017-07-19 11:00:00 26.3 9 Noroeste 18 Oeste 0 -- -- 54
2017-07-19 10:00:00 26.1 5 Noroeste 16 Noroeste 0 -- -- 51
2017-07-19 09:00:00 23.1 9 Este 19 Este 0 -- -- 55
2017-07-19 08:00:00 22.8 8 Nordeste 26 Nordeste 0 -- -- 55
2017-07-19 07:00:00 21.4 10 Este 17 Este 0 -- -- 70
2017-07-19 06:00:00 21.2 5 Norte 14 Noroeste 0.2 -- -- 63
2017-07-19 05:00:00 22.2 6 Este 14 Este 0 -- -- 52
2017-07-19 04:00:00 22.3 7 Este 17 Este 0 -- -- 63
2017-07-19 03:00:00 23 11 Este 19 Este 0 -- -- 64
2017-07-19 02:00:00 24 9 Este 22 Este 0 -- -- 62
2017-07-19 01:00:00 24.8 10 Nordeste 21 Nordeste 0 -- -- 59
2017-07-19 00:00:00 24.8 10 Este 31 Este 0 -- -- 63